2022年9月29日

时间 代码 天气 温度 能见度 天花板 METAR/SPECI
12:20
V
13 °C 10 km+ - 160° 160° 5 kt METAR EDLV 291020Z 16005KT 120V260 9999 FEW017 13/09 Q1002
11:50
V
12 °C 10 km+ - 180° 180° 4 kt METAR EDLV 290950Z 18004KT 130V230 CAVOK 12/09 Q1002
11:20
V
11 °C 10 km+ - 170° 170° 3 kt METAR EDLV 290920Z 17003KT 090V230 CAVOK 11/09 Q1002
10:50
V
10 °C 10 km+ - 190° 190° 3 kt METAR EDLV 290850Z 19003KT 9999 FEW006 10/09 Q1002
10:20
V
9 °C 10 km+ - 180° 180° 3 kt METAR EDLV 290820Z 18003KT 140V220 9999 FEW003 09/08 Q1002
09:50
V
8 °C 9 km - 150° 150° 4 kt METAR EDLV 290750Z 15004KT 100V190 9000 FEW003 08/07 Q1001
09:20
M
7 °C 6 km - Var Var 2 kt METAR EDLV 290720Z VRB02KT 6000 NSC 07/07 Q1001
08:50
I
6 °C 4,7 km - 120° 120° 3 kt METAR EDLV 290650Z 12003KT 080V140 4700 BR NSC 06/06 Q1001
08:20
I
4 °C 2,6 km - 130° 130° 3 kt METAR EDLV 290620Z 13003KT 100V190 2600 BR FEW001 04/04 Q1001
07:50
L
4 °C 350 m - 130° 130° 2 kt METAR EDLV 290550Z 13002KT 0500 0350 R27/1100U FG VV/// 04/04 Q1000
07:20
L
4 °C 800 m 300 ft Var Var 2 kt METAR EDLV 290520Z VRB02KT 1900 0800 R27/1600U BR FEW001 BKN003 04/04 Q1000
06:50
L
4 °C 900 m 300 ft Var Var 2 kt METAR EDLV 290450Z VRB02KT 0900 R27/P2000N FG FEW001 BKN003 04/04 Q1000
06:20
L
4 °C 500 m - Var Var 2 kt METAR EDLV 290420Z VRB02KT 0600 0500 R27/0650D FG VV/// 04/04 Q1000
05:50
L
5 °C 600 m - Var Var 2 kt METAR EDLV 290350Z VRB02KT 0700 0600 R27/1300D FG VV/// 05/04 Q1000
05:20
L
4 °C 600 m - 140° 140° 3 kt METAR EDLV 290320Z 14003KT 100V170 0900 0600 R27/2000D FG VV/// 04/04 Q1000
04:50
L
4 °C 550 m - 170° 170° 2 kt METAR EDLV 290250Z AUTO 17002KT 0900 0550 R27/1300D // SCT004/// 04/04 Q1000
04:20
L
4 °C 550 m - Var Var 2 kt METAR EDLV 290220Z AUTO VRB02KT 0600 0550 R27/1600U // VV/// 04/04 Q1000
03:50
L
4 °C 350 m - 140° 140° 2 kt METAR EDLV 290150Z AUTO 14002KT 0500 0350 R27/0900U // VV/// 04/04 Q1000
03:20
L
5 °C 400 m - 130° 130° 2 kt METAR EDLV 290120Z AUTO 13002KT 0500 0400 R27/0750D // FEW004/// 05/05 Q1000
02:50
L
5 °C 400 m - Var 000° 0 kt METAR EDLV 290050Z AUTO 00000KT 0450 0400 R27/0650U // FEW004/// 05/05 Q1000
02:20
I
6 °C 4,1 km - 170° 170° 2 kt METAR EDLV 290020Z AUTO 17002KT 4100 // NCD 06/06 Q1000
01:50
I
6 °C 2,8 km - 170° 170° 3 kt METAR EDLV 282350Z AUTO 17003KT 2800 // FEW004/// 06/06 Q1000
01:20
L
6 °C 1,3 km - 170° 170° 3 kt METAR EDLV 282320Z AUTO 17003KT 4000 1300 R27/P2000N // FEW004/// 06/06 Q1000
00:50
I
6 °C 1,8 km - 180° 180° 3 kt METAR EDLV 282250Z AUTO 18003KT 4000 1800 // FEW004/// 06/05 Q1000
00:20
L
7 °C 400 m - 120° 120° 2 kt METAR EDLV 282220Z AUTO 12002KT 0450 0400 R27/0650D // FEW003/// 07/07 Q0999

2022年9月28日

时间 代码 天气 温度 能见度 天花板 METAR/SPECI
23:50
L
6 °C 750 m - Var Var 2 kt METAR EDLV 282150Z AUTO VRB02KT 1600 0750 R27/1000U // FEW003/// 06/06 Q0999
23:20
V
7 °C 10 km+ - Var 000° 0 kt METAR EDLV 282120Z 00000KT CAVOK 07/07 Q0999
22:50
V
7 °C 10 km+ - 180° 180° 4 kt METAR EDLV 282050Z 18004KT CAVOK 07/07 Q0999
22:20
V
8 °C 10 km+ - 170° 170° 4 kt METAR EDLV 282020Z 17004KT CAVOK 08/07 Q0999
21:50
V
7 °C 10 km+ - Var Var 2 kt METAR EDLV 281950Z VRB02KT 9999 FEW025 07/07 Q0999
21:20
V
8 °C 9 km - Var 000° 0 kt METAR EDLV 281920Z 00000KT 9000 FEW026 08/08 Q0999
20:50
V
8 °C 9 km - Var Var 1 kt METAR EDLV 281850Z VRB01KT 9000 FEW002 08/07 Q0999
20:20
V
8 °C 10 km+ - 190° 190° 3 kt METAR EDLV 281820Z 19003KT 9999 FEW002 08/08 Q0999
19:50
V
9 °C 10 km+ - 170° 170° 3 kt METAR EDLV 281750Z 17003KT CAVOK 09/08 Q0998
19:20
V
10 °C 10 km+ - 160° 160° 3 kt METAR EDLV 281720Z 16003KT 9999 FEW048 10/08 Q0998
18:50
V
10 °C 10 km+ - 210° 210° 3 kt METAR EDLV 281650Z 21003KT 120V290 CAVOK 10/08 Q0998
18:20
V
10 °C 10 km+ 4.500 ft 300° 300° 4 kt METAR EDLV 281620Z 30004KT 260V330 9999 -RA BKN045 10/08 Q0998
17:50
V
10 °C 10 km+ 4.900 ft 320° 320° 6 kt METAR EDLV 281550Z 32006KT 280V340 9999 -RA BKN049 10/08 Q0998
17:20
V
10 °C 10 km+ - 270° 270° 3 kt METAR EDLV 281520Z 27003KT 9999 -RA FEW049 10/08 Q0998
16:50
V
10 °C 10 km+ 4.700 ft 210° 210° 4 kt METAR EDLV 281450Z 21004KT 9999 -RA VCTS SCT039CB BKN047 10/09 Q0997
16:20
V
11 °C 10 km+ 4.600 ft 260° 260° 10 kt METAR EDLV 281420Z 26010KT 9999 -SHRA VCTS SCT020CB BKN046 11/07 Q0997
15:50
V
12 °C 10 km+ - 220° 220° 5 kt METAR EDLV 281350Z 22005KT 9999 VCSH FEW041 12/09 Q0997
15:20
V
12 °C 10 km+ 6.000 ft 250° 250° 7 kt METAR EDLV 281320Z 25007KT 9999 VCSH BKN060TCU 12/09 Q0997
14:50
V
13 °C 10 km+ - 270° 270° 7 kt METAR EDLV 281250Z 27007KT 9999 VCSH FEW027 13/08 Q0997
14:20
V
14 °C 10 km+ - 270° 270° 8 kt METAR EDLV 281220Z 27008KT 240V320 9999 FEW029 14/08 Q0997
13:50
V
14 °C 10 km+ 4.900 ft 290° 290° 5 kt METAR EDLV 281150Z 29005KT 240V340 9999 SCT027 BKN049 14/07 Q0997
13:20
M
13 °C 10 km+ 2.800 ft 270° 270° 6 kt METAR EDLV 281120Z 27006KT 250V320 9999 FEW023 BKN028 13/07 Q0997
12:50
M
13 °C 10 km+ 2.200 ft 270° 270° 7 kt METAR EDLV 281050Z 27007KT 240V320 9999 FEW019 BKN022 BKN028 13/08 Q0997
12:20
V
12 °C 10 km+ 3.300 ft 280° 280° 7 kt METAR EDLV 281020Z 28007KT 9999 FEW016 SCT019 BKN033 12/08 Q0997
11:50
M
12 °C 10 km+ 1.500 ft 260° 260° 8 kt METAR EDLV 280950Z 26008KT 230V300 9999 BKN015 BKN018 12/08 Q0997
11:20
V
12 °C 10 km+ - 280° 280° 7 kt METAR EDLV 280920Z 28007KT 240V310 9999 SCT012 12/09 Q0997
10:50
M
11 °C 10 km+ 2.900 ft 290° 290° 7 kt METAR EDLV 280850Z 29007KT 9999 SCT009 BKN029 11/08 Q0997
10:20
I
10 °C 10 km+ 800 ft 270° 270° 9 kt METAR EDLV 280820Z 27009KT 9999 BKN008 10/08 Q0996
09:50
V
10 °C 10 km+ - 280° 280° 7 kt METAR EDLV 280750Z 28007KT 9999 SCT007 10/08 Q0996
09:20
V
8 °C 10 km+ - 260° 260° 6 kt METAR EDLV 280720Z 26006KT 240V300 9999 FEW005 08/08 Q0996
08:50
V
7 °C 9 km - 260° 260° 5 kt METAR EDLV 280650Z 26005KT 9000 FEW006 07/07 Q0996
08:20
V
7 °C 9 km - 250° 250° 6 kt METAR EDLV 280620Z 25006KT 9000 FEW006 SCT039 07/06 Q0995
07:50
V
7 °C 9 km - 260° 260° 7 kt METAR EDLV 280550Z 26007KT 9000 FEW007 SCT037 07/07 Q0995
07:20
V
8 °C 8 km 4.200 ft 260° 260° 5 kt METAR EDLV 280520Z 26005KT 8000 FEW031 OVC042 08/07 Q0995
06:50
M
8 °C 7 km 4.100 ft 260° 260° 5 kt METAR EDLV 280450Z 26005KT 7000 FEW033 BKN041 OVC049 08/07 Q0995
06:20
M
8 °C 7 km 4.900 ft 260° 260° 5 kt METAR EDLV 280420Z 26005KT 7000 FEW030 OVC049 08/07 Q0995
05:50
M
7 °C 7 km 4.100 ft 250° 250° 6 kt METAR EDLV 280350Z 25006KT 7000 BKN041 07/07 Q0995
05:20
M
7 °C 7 km 4.200 ft 250° 250° 6 kt METAR EDLV 280320Z 25006KT 7000 BKN042 07/07 Q0995
04:50
M
7 °C 7 km 4.300 ft 230° 230° 4 kt METAR EDLV 280250Z AUTO 23004KT 7000 // BKN043/// 07/06 Q0995
04:20
M
7 °C 6 km 4.600 ft 240° 240° 3 kt METAR EDLV 280220Z AUTO 24003KT 6000 // BKN046/// BKN060/// OVC075/// 07/07 Q0995
03:50
M
7 °C 6 km 4.800 ft 250° 250° 2 kt METAR EDLV 280150Z AUTO 25002KT 6000 // FEW004/// OVC048/// 07/06 Q0995
03:20
M
7 °C 6 km 5.500 ft 280° 280° 4 kt METAR EDLV 280120Z AUTO 28004KT 6000 // FEW004/// SCT006/// BKN055/// 07/06 Q0995
02:50
I
7 °C 10 km+ 500 ft 240° 240° 6 kt METAR EDLV 280050Z AUTO 24006KT 9999 // BKN005/// 07/07 Q0995
02:20
I
8 °C 10 km+ 600 ft 220° 220° 3 kt METAR EDLV 280020Z AUTO 22003KT 190V250 9999 // BKN006/// OVC060/// 08/07 Q0995
01:50
V
7 °C 10 km+ 7.600 ft 240° 240° 6 kt METAR EDLV 272350Z AUTO 24006KT 9999 // SCT006/// BKN076/// BKN170/// 07/07 Q0996
01:20
V
8 °C 10 km+ 5.800 ft 220° 220° 4 kt METAR EDLV 272320Z AUTO 22004KT 9999 // FEW008/// OVC058/// 08/07 Q0996
00:50
V
8 °C 10 km+ 9.900 ft 220° 220° 5 kt METAR EDLV 272250Z AUTO 22005KT 9999 // FEW053/// OVC099/// 08/07 Q0996
00:20
V
8 °C 10 km+ 10.000 ft 200° 200° 5 kt METAR EDLV 272220Z AUTO 20005KT 9999 // FEW003/// BKN100/// OVC160/// 08/07 Q0996

2022年9月27日

时间 代码 天气 温度 能见度 天花板 METAR/SPECI
23:50
V
8 °C 10 km+ 5.000 ft 210° 210° 5 kt METAR EDLV 272150Z AUTO 21005KT 9999 // FEW003/// SCT041/// BKN050/// 08/07 Q0996
23:20
V
8 °C 10 km+ - 200° 200° 5 kt METAR EDLV 272120Z 20005KT 9999 -RA FEW006 08/07 Q0996
22:50
V
8 °C 10 km+ 4.700 ft 180° 180° 5 kt METAR EDLV 272050Z 18005KT 9999 -RA BKN047 08/08 Q0996
22:20
V
9 °C 10 km+ - 180° 180° 5 kt METAR EDLV 272020Z 18005KT 9999 -RA FEW049 09/08 Q0997
21:50
V
9 °C 8 km 4.700 ft 180° 180° 6 kt METAR EDLV 271950Z 18006KT 8000 -RA FEW036 BKN047 09/08 Q0997
21:20
V
9 °C 10 km+ 4.300 ft 190° 190° 6 kt METAR EDLV 271920Z 19006KT 9999 -RA BKN043 09/08 Q0997 RERA
20:50
M
9 °C 6 km 4.500 ft 200° 200° 5 kt METAR EDLV 271850Z 20005KT 6000 RA FEW038 BKN045 09/08 Q0997
20:20
V
9 °C 10 km+ - 200° 200° 6 kt METAR EDLV 271820Z 20006KT 180V240 9999 -RA NSC 09/08 Q0997
19:50
V
9 °C 10 km+ - 200° 200° 6 kt METAR EDLV 271750Z 20006KT 9999 -RA FEW041 09/08 Q0997
19:20
V
10 °C 9 km 4.200 ft 220° 220° 7 kt METAR EDLV 271720Z 22007KT 190V250 9000 -RA FEW029 BKN042 10/08 Q0997
18:50
V
10 °C 10 km+ - 210° 210° 6 kt METAR EDLV 271650Z 21006KT 9999 -RA SCT033 10/08 Q0998
18:20
V
10 °C 10 km+ - 200° 200° 6 kt METAR EDLV 271620Z 20006KT 9999 FEW020 10/08 Q0998
17:50
M
11 °C 10 km+ 2.600 ft 220° 220° 7 kt METAR EDLV 271550Z 22007KT 9999 -RA FEW016 BKN026 11/07 Q0998
17:20
V
11 °C 10 km+ - 230° 230° 7 kt METAR EDLV 271520Z 23007KT 200V260 9999 FEW020 11/08 Q0998
16:50
V
11 °C 10 km+ - 260° 260° 7 kt METAR EDLV 271450Z 26007KT 230V290 9999 FEW021 11/07 Q0998
16:20
V
11 °C 10 km+ - 270° 270° 7 kt METAR EDLV 271420Z 27007KT 9999 FEW046 11/06 Q0998
15:50
V
11 °C 10 km+ 4.300 ft 280° 280° 9 kt METAR EDLV 271350Z 28009KT 250V320 9999 SCT016 BKN043 11/07 Q0998
15:20
V
11 °C 10 km+ - 280° 280° 9 kt METAR EDLV 271320Z 28009KT 9999 FEW014 SCT019 11/09 Q0998
14:50
V
10 °C 10 km+ - 270° 270° 13 kt METAR EDLV 271250Z 27013KT 9999 -RA FEW012 10/08 Q0998
14:20
M
10 °C 10 km+ 1.400 ft 260° 260° 12 kt METAR EDLV 271220Z 26012KT 9999 -RA SCT010 BKN014 10/08 Q0998
13:50
V
10 °C 10 km+ - 260° 260° 11 kt METAR EDLV 271150Z 26011KT 9999 -RA FEW010 10/08 Q0998
13:20
V
10 °C 9 km 4.500 ft 260° 260° 12 kt METAR EDLV 271120Z 26012KT 9000 -RA SCT011 OVC045 10/08 Q0998
12:50
M
10 °C 10 km+ 1.100 ft 260° 260° 11 kt METAR EDLV 271050Z 26011KT 9999 -RA BKN011 BKN017 10/08 Q0998
较旧的数据

我们和第三方通过cookies跟踪您在我们网站上的上网行为。如果您继续,我们认为您同意我们的cookie政策。 了解更多